Kirsch Municipal Airport

About

Name: Kirsch Municipal Airport
Identifier:  IRS/KIRS
Local Time:  26. Jan 23:11 EST

Location

Kirsch Municipal Airport

Statistics

Flights Per Day:
0 Flights
Distance: 119km (73mi)
Flights Delayed:
-100% (0 Flights/Day Delayed)
Average Delay: 15 minutes

Current Weather

 0 C (Humidity: 100%)
  5kt (9km/h / 5mph) from 260°
  Overcast at 300 feet (91 meter)
  1km (1 mi.)
 Light/Moderate: Snow
 METAR KIRS 270356Z AUTO 26005KT 1SM -SN OVC003 00/00 A2985 RMK AO2 T00001003

Claim Compensation

Claim compensation for your flight delay or cancellation
Flight delays happen, but that doesn’t mean you have to accept them. You may be entitled to as much as €600/$700 in compensation if your flight has been delayed, canceled or overbooked within the last three years.

Current Delays

Departures

N/A

Arrivals

N/A

Destinations

Map

Top Destinations

Airport Flights
per week
Seats
per week
  Grand Rapids (GRR) 0 - 0 0

Airlines & Planes

Top Airlines

Airline Flights
per day
Seats
per day
  Novair 0 -

Top Models

model Flights seats
Piper PA-32R-301T Saratoga II 0.0/day - 0